createdAt,value
2019-01-17T00:01:00.599Z,12.27
2019-01-17T00:04:00.446Z,12.27
2019-01-17T00:06:59.446Z,12.47
2019-01-17T00:09:56.355Z,13.30
2019-01-17T00:12:36.459Z,12.43
2019-01-17T00:15:23.139Z,12.33
2019-01-17T00:18:11.256Z,13.90
2019-01-17T00:20:59.051Z,12.77
2019-01-17T00:24:02.554Z,12.47
2019-01-17T00:26:48.324Z,12.45
2019-01-17T00:29:31.355Z,12.17
2019-01-17T00:32:17.652Z,12.30
2019-01-17T00:35:08.558Z,11.07
2019-01-17T00:37:56.391Z,11.40
2019-01-17T00:40:53.111Z,11.63
2019-01-17T00:43:31.536Z,10.70
2019-01-17T00:46:19.319Z,11.17
2019-01-17T00:49:08.477Z,11.17
2019-01-17T00:51:56.436Z,10.17
2019-01-17T00:54:50.144Z,9.63
2019-01-17T00:57:36.712Z,8.87
2019-01-17T01:00:17.721Z,10.03
2019-01-17T01:02:56.393Z,8.90
2019-01-17T01:05:47.035Z,8.50
2019-01-17T01:08:33.668Z,8.67
2019-01-17T01:11:27.304Z,9.50
2019-01-17T01:14:24.013Z,8.30
2019-01-17T01:17:25.449Z,8.63
2019-01-17T01:20:13.232Z,8.65
2019-01-17T01:23:01.174Z,9.07
2019-01-17T01:25:49.005Z,9.40
2019-01-17T01:28:32.046Z,9.93
2019-01-17T01:31:19.866Z,8.77
2019-01-17T01:33:56.420Z,8.67
2019-01-17T01:36:42.917Z,9.33
2019-01-17T01:39:30.880Z,8.67
2019-01-17T01:42:17.510Z,7.73
2019-01-17T01:45:06.349Z,7.33
2019-01-17T01:48:06.137Z,6.70
2019-01-17T01:50:53.923Z,6.90
2019-01-17T01:53:22.807Z,6.90
2019-01-17T01:55:51.604Z,6.80
2019-01-17T01:58:20.831Z,6.90
2019-01-17T02:00:49.571Z,6.13
2019-01-17T02:03:18.346Z,4.43
2019-01-17T02:05:47.078Z,3.00
2019-01-17T02:08:15.882Z,3.37
2019-01-17T02:10:44.651Z,3.17
2019-01-17T02:13:13.446Z,3.20
2019-01-17T02:15:42.720Z,3.13
2019-01-17T02:18:11.493Z,2.93
2019-01-17T02:20:40.238Z,3.00
2019-01-17T02:23:08.993Z,2.90
2019-01-17T02:25:37.806Z,3.00
2019-01-17T02:28:07.057Z,2.90
2019-01-17T02:30:35.911Z,2.80
2019-01-17T02:33:05.124Z,3.30
2019-01-17T02:35:33.872Z,3.00
2019-01-17T02:38:02.649Z,3.00
2019-01-17T02:40:31.427Z,3.20
2019-01-17T02:43:00.155Z,3.60
2019-01-17T02:45:28.938Z,3.50
2019-01-17T02:47:57.676Z,3.17
2019-01-17T02:50:26.738Z,3.30
2019-01-17T02:52:55.563Z,3.33
2019-01-17T02:55:24.440Z,3.37
2019-01-17T02:57:53.282Z,3.77
2019-01-17T03:00:22.090Z,4.13
2019-01-17T03:02:50.846Z,4.13
2019-01-17T03:05:19.675Z,3.90
2019-01-17T03:07:48.463Z,4.10
2019-01-17T03:10:17.732Z,4.07
2019-01-17T03:12:46.482Z,4.20
2019-01-17T03:15:15.525Z,4.40
2019-01-17T03:17:44.796Z,5.30
2019-01-17T03:20:13.860Z,5.07
2019-01-17T03:22:42.591Z,5.60
2019-01-17T03:25:11.786Z,4.97
2019-01-17T03:27:40.727Z,5.23
2019-01-17T03:30:11.464Z,5.87
2019-01-17T03:32:40.261Z,5.43
2019-01-17T03:35:09.166Z,4.90
2019-01-17T03:37:38.074Z,4.73
2019-01-17T03:40:07.476Z,4.23
2019-01-17T03:42:36.384Z,4.10
2019-01-17T03:45:05.772Z,4.50
2019-01-17T03:47:34.564Z,4.33
2019-01-17T03:50:03.351Z,4.10
2019-01-17T03:52:32.185Z,3.83
2019-01-17T03:55:00.965Z,4.20
2019-01-17T03:57:31.829Z,3.97
2019-01-17T04:00:00.558Z,4.23
2019-01-17T04:02:30.391Z,3.87
2019-01-17T04:04:59.335Z,4.10
2019-01-17T04:07:28.153Z,4.37
2019-01-17T04:09:56.939Z,4.40
2019-01-17T04:12:25.713Z,4.53
2019-01-17T04:14:54.494Z,4.47
2019-01-17T04:17:23.273Z,4.30
2019-01-17T04:19:52.575Z,4.50
2019-01-17T04:22:21.333Z,4.23
2019-01-17T04:24:50.102Z,4.67
2019-01-17T04:27:18.875Z,4.67
2019-01-17T04:29:48.390Z,4.87
2019-01-17T04:32:17.195Z,5.03
2019-01-17T04:34:46.063Z,4.80
2019-01-17T04:37:14.847Z,5.27
2019-01-17T04:39:43.624Z,5.30
2019-01-17T04:42:12.410Z,5.80
2019-01-17T04:44:41.236Z,5.20
2019-01-17T04:47:10.047Z,5.40
2019-01-17T04:49:39.128Z,5.07
2019-01-17T04:52:07.917Z,5.97
2019-01-17T04:54:36.783Z,5.90
2019-01-17T04:57:05.766Z,6.67
2019-01-17T04:59:34.577Z,7.03
2019-01-17T05:02:03.587Z,6.33
2019-01-17T05:04:32.382Z,6.80
2019-01-17T05:07:01.145Z,7.00
2019-01-17T05:09:30.009Z,6.90
2019-01-17T05:11:58.868Z,7.30
2019-01-17T05:14:27.656Z,7.30
2019-01-17T05:16:56.478Z,7.43
2019-01-17T05:19:25.342Z,7.47
2019-01-17T05:21:54.134Z,7.60
2019-01-17T05:24:22.864Z,8.33
2019-01-17T05:26:52.391Z,9.37
2019-01-17T05:29:21.289Z,8.73
2019-01-17T05:31:50.071Z,8.47
2019-01-17T05:34:18.911Z,9.03
2019-01-17T05:36:47.776Z,8.43
2019-01-17T05:39:16.590Z,8.30
2019-01-17T05:41:45.480Z,8.03
2019-01-17T05:44:14.761Z,8.63
2019-01-17T05:46:43.557Z,9.07
2019-01-17T05:49:12.296Z,9.03
2019-01-17T05:51:41.137Z,8.37
2019-01-17T05:54:09.915Z,8.37
2019-01-17T05:56:39.798Z,8.93
2019-01-17T05:59:08.616Z,8.83
2019-01-17T06:01:37.370Z,8.30
2019-01-17T06:04:06.614Z,8.80
2019-01-17T06:06:35.472Z,7.87
2019-01-17T06:09:06.672Z,8.73
2019-01-17T06:11:35.456Z,8.67
2019-01-17T06:14:04.391Z,9.07
2019-01-17T06:16:33.717Z,8.67
2019-01-17T06:19:02.531Z,9.53
2019-01-17T06:21:31.802Z,9.27
2019-01-17T06:24:00.568Z,9.70
2019-01-17T06:26:29.320Z,10.37
2019-01-17T06:28:58.164Z,10.83
2019-01-17T06:31:26.942Z,9.57
2019-01-17T06:33:56.115Z,9.67
2019-01-17T06:36:24.927Z,9.90
2019-01-17T06:38:53.719Z,10.70
2019-01-17T06:41:22.475Z,10.60
2019-01-17T06:43:51.277Z,10.43
2019-01-17T06:46:20.085Z,11.17
2019-01-17T06:48:48.931Z,11.77
2019-01-17T06:51:17.676Z,11.40
2019-01-17T06:53:46.678Z,11.47
2019-01-17T06:56:15.506Z,12.13
2019-01-17T06:58:44.390Z,12.07
2019-01-17T07:01:13.222Z,13.23
2019-01-17T07:03:42.182Z,12.90
2019-01-17T07:06:11.491Z,12.73
2019-01-17T07:08:40.506Z,12.33
2019-01-17T07:11:09.326Z,13.17
2019-01-17T07:13:38.137Z,12.83
2019-01-17T07:16:06.904Z,13.50
2019-01-17T07:18:35.718Z,14.13
2019-01-17T07:21:04.636Z,14.23
2019-01-17T07:23:33.467Z,14.00
2019-01-17T07:26:02.302Z,14.23
2019-01-17T07:28:31.106Z,14.20
2019-01-17T07:30:59.922Z,14.83
2019-01-17T07:33:28.699Z,14.50
2019-01-17T07:35:57.491Z,14.00
2019-01-17T07:38:26.510Z,14.90
2019-01-17T07:40:55.342Z,15.07
2019-01-17T07:43:24.140Z,13.37
2019-01-17T07:45:52.979Z,13.70
2019-01-17T07:48:21.758Z,14.00
2019-01-17T07:50:50.747Z,13.85
2019-01-17T07:53:19.532Z,14.43
2019-01-17T07:55:48.283Z,13.37
2019-01-17T07:58:17.077Z,13.83
2019-01-17T08:00:46.025Z,14.63
2019-01-17T08:03:14.846Z,14.03
2019-01-17T08:05:43.674Z,14.50
2019-01-17T08:08:12.489Z,13.57
2019-01-17T08:10:41.300Z,13.73
2019-01-17T08:13:10.115Z,14.27
2019-01-17T08:15:38.875Z,14.97
2019-01-17T08:18:07.667Z,14.10
2019-01-17T08:20:36.434Z,15.63
2019-01-17T08:23:05.347Z,15.00
2019-01-17T08:25:34.007Z,15.60
2019-01-17T08:28:02.843Z,15.03
2019-01-17T08:30:31.600Z,15.60
2019-01-17T08:33:00.374Z,13.17
2019-01-17T08:35:29.166Z,17.47
2019-01-17T08:37:57.983Z,15.03
2019-01-17T08:40:28.962Z,15.93
2019-01-17T08:42:57.741Z,16.23
2019-01-17T08:45:26.479Z,16.05
2019-01-17T08:47:55.239Z,16.10
2019-01-17T08:50:24.039Z,16.67
2019-01-17T08:52:52.886Z,16.13
2019-01-17T08:55:21.685Z,16.80
2019-01-17T08:57:50.449Z,17.23
2019-01-17T09:00:19.937Z,17.33
2019-01-17T09:02:48.759Z,17.90
2019-01-17T09:05:17.579Z,16.62
2019-01-17T09:07:46.362Z,16.60
2019-01-17T09:10:16.820Z,17.60
2019-01-17T09:12:45.666Z,17.53
2019-01-17T09:15:14.998Z,18.90
2019-01-17T09:17:43.787Z,17.30
2019-01-17T09:20:13.315Z,15.80
2019-01-17T09:22:42.080Z,16.30
2019-01-17T09:25:11.573Z,16.33
2019-01-17T09:27:40.306Z,15.17
2019-01-17T09:30:10.260Z,15.03
2019-01-17T09:32:39.040Z,14.93
2019-01-17T09:35:08.455Z,14.60
2019-01-17T09:37:37.282Z,14.50
2019-01-17T09:40:06.955Z,14.27
2019-01-17T09:42:35.725Z,13.90
2019-01-17T09:45:04.743Z,14.20
2019-01-17T09:47:33.506Z,14.50
2019-01-17T09:50:02.350Z,13.60
2019-01-17T09:52:31.187Z,12.70
2019-01-17T09:54:59.967Z,13.17
2019-01-17T09:57:28.815Z,11.77
2019-01-17T09:59:57.555Z,13.33
2019-01-17T10:02:26.341Z,13.70
2019-01-17T10:04:55.082Z,12.50
2019-01-17T10:07:23.885Z,12.43
2019-01-17T10:09:52.626Z,12.90
2019-01-17T10:12:21.455Z,11.47
2019-01-17T10:14:50.221Z,11.95
2019-01-17T10:17:36.762Z,11.27
2019-01-17T10:20:09.723Z,11.20
2019-01-17T10:23:04.050Z,11.37
2019-01-17T10:25:48.046Z,10.83
2019-01-17T10:28:34.372Z,10.27
2019-01-17T10:31:40.455Z,10.90
2019-01-17T10:34:22.939Z,10.10
2019-01-17T10:37:01.182Z,11.10
2019-01-17T10:39:42.262Z,10.43
2019-01-17T10:42:39.120Z,10.90
2019-01-17T10:45:41.865Z,11.27
2019-01-17T10:48:35.448Z,8.83
2019-01-17T10:51:29.249Z,8.80
2019-01-17T10:54:08.326Z,10.20
2019-01-17T10:56:41.466Z,8.63
2019-01-17T10:59:16.082Z,5.85
2019-01-17T11:02:02.392Z,5.93
2019-01-17T11:04:53.685Z,6.43
2019-01-17T11:07:27.828Z,5.90
2019-01-17T11:10:15.685Z,5.90
2019-01-17T11:13:01.045Z,5.37
2019-01-17T11:15:48.886Z,5.80
2019-01-17T11:18:48.910Z,6.47
2019-01-17T11:21:48.694Z,6.83
2019-01-17T11:24:30.977Z,7.20
2019-01-17T11:27:24.967Z,7.17
2019-01-17T11:30:12.855Z,7.17
2019-01-17T11:33:09.770Z,8.03
2019-01-17T11:36:06.438Z,7.77
2019-01-17T11:39:03.841Z,7.53
2019-01-17T11:41:42.903Z,7.53
2019-01-17T11:44:37.066Z,7.55
2019-01-17T11:47:19.564Z,7.23
2019-01-17T11:50:07.766Z,6.83
2019-01-17T11:53:01.637Z,6.47
2019-01-17T11:55:49.494Z,5.43
2019-01-17T11:58:27.994Z,4.27
2019-01-17T12:01:00.904Z,3.77
2019-01-17T12:03:37.164Z,3.90
2019-01-17T12:06:05.931Z,4.03
2019-01-17T12:08:34.697Z,3.73
2019-01-17T12:11:03.565Z,3.30
2019-01-17T12:13:32.377Z,3.97
2019-01-17T12:16:01.130Z,3.60
2019-01-17T12:18:30.027Z,3.83
2019-01-17T12:20:58.782Z,3.60
2019-01-17T12:23:27.581Z,4.37
2019-01-17T12:25:56.389Z,4.40
2019-01-17T12:28:25.193Z,4.37
2019-01-17T12:30:53.946Z,4.17
2019-01-17T12:33:22.715Z,3.87
2019-01-17T12:35:51.462Z,4.20
2019-01-17T12:38:20.241Z,3.93
2019-01-17T12:40:49.194Z,4.40
2019-01-17T12:43:18.037Z,4.33
2019-01-17T12:45:46.790Z,4.30
2019-01-17T12:48:15.558Z,4.07
2019-01-17T12:50:44.290Z,4.50
2019-01-17T12:53:13.101Z,4.13
2019-01-17T12:55:41.875Z,4.13
2019-01-17T12:58:10.660Z,4.60
2019-01-17T13:00:39.461Z,4.53
2019-01-17T13:03:08.378Z,4.27
2019-01-17T13:05:37.172Z,4.50
2019-01-17T13:08:05.992Z,4.07
2019-01-17T13:10:34.766Z,4.73
2019-01-17T13:13:03.563Z,3.90
2019-01-17T13:15:32.402Z,4.47
2019-01-17T13:18:01.239Z,4.67
2019-01-17T13:20:30.077Z,3.90
2019-01-17T13:22:58.815Z,4.00
2019-01-17T13:25:27.576Z,4.10
2019-01-17T13:27:56.355Z,3.27
2019-01-17T13:30:25.154Z,3.50
2019-01-17T13:32:53.950Z,3.50
2019-01-17T13:35:22.730Z,3.57
2019-01-17T13:37:51.527Z,3.23
2019-01-17T13:40:20.949Z,3.60
2019-01-17T13:42:49.946Z,3.33
2019-01-17T13:45:19.495Z,3.23
2019-01-17T13:47:48.429Z,2.80
2019-01-17T13:50:18.026Z,2.80
2019-01-17T13:52:46.800Z,2.57
2019-01-17T13:55:15.878Z,2.30
2019-01-17T13:57:44.917Z,2.30
2019-01-17T14:00:15.342Z,2.27
2019-01-17T14:02:44.076Z,1.93
2019-01-17T14:05:13.583Z,2.40
2019-01-17T14:07:42.418Z,2.37
2019-01-17T14:10:11.430Z,2.30
2019-01-17T14:12:40.218Z,1.97
2019-01-17T14:15:13.258Z,2.40
2019-01-17T14:17:42.080Z,2.07
2019-01-17T14:20:11.055Z,2.10
2019-01-17T14:22:39.862Z,2.33
2019-01-17T14:25:09.261Z,2.20
2019-01-17T14:27:38.102Z,2.13
2019-01-17T14:30:08.779Z,1.77
2019-01-17T14:32:37.606Z,1.60
2019-01-17T14:35:06.395Z,1.90
2019-01-17T14:37:35.165Z,1.60
2019-01-17T14:40:04.082Z,1.67
2019-01-17T14:42:32.878Z,1.73
2019-01-17T14:45:01.612Z,1.47
2019-01-17T14:47:30.465Z,1.50
2019-01-17T14:49:59.259Z,1.97
2019-01-17T14:52:28.170Z,1.40
2019-01-17T14:54:56.915Z,1.67
2019-01-17T14:57:25.746Z,1.63
2019-01-17T14:59:54.513Z,1.90
2019-01-17T15:02:23.271Z,1.60
2019-01-17T15:04:52.357Z,1.50
2019-01-17T15:07:21.147Z,1.77
2019-01-17T15:09:50.280Z,1.60
2019-01-17T15:12:18.999Z,1.60
2019-01-17T15:14:47.924Z,1.50
2019-01-17T15:17:16.701Z,1.50
2019-01-17T15:19:45.526Z,1.40
2019-01-17T15:22:14.289Z,1.63
2019-01-17T15:24:43.110Z,1.50
2019-01-17T15:27:11.890Z,2.30
2019-01-17T15:29:40.803Z,1.70
2019-01-17T15:32:09.594Z,1.27
2019-01-17T15:34:38.410Z,1.70
2019-01-17T15:37:07.211Z,1.50
2019-01-17T15:39:36.047Z,1.43
2019-01-17T15:42:04.891Z,1.80
2019-01-17T15:44:33.787Z,1.90
2019-01-17T15:47:02.527Z,2.60
2019-01-17T15:49:31.393Z,1.50
2019-01-17T15:52:00.276Z,1.60
2019-01-17T15:54:29.071Z,2.00
2019-01-17T15:56:57.880Z,2.20
2019-01-17T15:59:26.652Z,1.53
2019-01-17T16:01:55.542Z,1.60
2019-01-17T16:04:24.415Z,2.10
2019-01-17T16:06:53.526Z,1.77
2019-01-17T16:09:22.475Z,2.10
2019-01-17T16:11:51.389Z,2.10
2019-01-17T16:14:20.190Z,1.73
2019-01-17T16:16:48.978Z,2.10
2019-01-17T16:19:17.863Z,5.60
2019-01-17T16:21:47.237Z,5.17
2019-01-17T16:24:16.230Z,5.43
2019-01-17T16:26:45.085Z,2.17
2019-01-17T16:29:13.873Z,2.10
2019-01-17T16:31:42.775Z,1.93
2019-01-17T16:34:11.622Z,1.73
2019-01-17T16:36:40.565Z,2.10
2019-01-17T16:39:09.527Z,2.03
2019-01-17T16:41:38.367Z,2.07
2019-01-17T16:44:07.235Z,2.03
2019-01-17T16:46:36.102Z,2.20
2019-01-17T16:49:04.871Z,1.90
2019-01-17T16:51:33.717Z,1.90
2019-01-17T16:54:02.681Z,2.40
2019-01-17T16:56:31.472Z,2.23
2019-01-17T16:59:00.383Z,1.97
2019-01-17T17:01:29.548Z,2.23
2019-01-17T17:03:58.536Z,1.93
2019-01-17T17:06:27.337Z,2.30
2019-01-17T17:08:56.314Z,2.47
2019-01-17T17:11:25.237Z,2.23
2019-01-17T17:13:54.289Z,2.40
2019-01-17T17:16:23.193Z,3.53
2019-01-17T17:18:51.999Z,2.70
2019-01-17T17:21:20.851Z,2.50
2019-01-17T17:23:49.704Z,2.50
2019-01-17T17:26:18.561Z,3.10
2019-01-17T17:28:47.508Z,3.30
2019-01-17T17:31:16.428Z,3.17
2019-01-17T17:33:45.327Z,3.10
2019-01-17T17:36:14.189Z,3.80
2019-01-17T17:38:42.995Z,3.10
2019-01-17T17:41:11.907Z,2.80
2019-01-17T17:43:40.801Z,3.00
2019-01-17T17:46:09.588Z,3.00
2019-01-17T17:48:38.711Z,3.90
2019-01-17T17:51:07.640Z,3.30
2019-01-17T17:53:36.475Z,3.67
2019-01-17T17:56:05.274Z,3.33
2019-01-17T17:58:34.109Z,3.50
2019-01-17T18:01:31.019Z,3.30
2019-01-17T18:04:01.295Z,3.27
2019-01-17T18:06:30.246Z,3.13
2019-01-17T18:08:59.336Z,2.90
2019-01-17T18:11:28.186Z,3.03
2019-01-17T18:13:57.142Z,3.10
2019-01-17T18:16:26.026Z,3.03
2019-01-17T18:18:54.980Z,2.43
2019-01-17T18:21:23.827Z,3.03
2019-01-17T18:23:52.641Z,2.80
2019-01-17T18:26:21.488Z,2.70
2019-01-17T18:28:50.259Z,3.17
2019-01-17T18:31:19.173Z,3.07
2019-01-17T18:33:48.042Z,2.83
2019-01-17T18:36:16.881Z,2.80
2019-01-17T18:38:45.742Z,2.63
2019-01-17T18:41:14.781Z,2.80
2019-01-17T18:43:43.862Z,2.70
2019-01-17T18:46:12.700Z,3.27
2019-01-17T18:48:41.612Z,3.03
2019-01-17T18:51:10.601Z,3.10
2019-01-17T18:53:39.575Z,2.80
2019-01-17T18:56:08.576Z,2.63
2019-01-17T18:58:37.460Z,2.53
2019-01-17T19:01:06.344Z,2.20
2019-01-17T19:03:35.289Z,2.40
2019-01-17T19:06:05.051Z,2.57
2019-01-17T19:08:33.947Z,2.43
2019-01-17T19:11:02.836Z,2.47
2019-01-17T19:13:31.769Z,2.40
2019-01-17T19:16:00.672Z,2.70
2019-01-17T19:18:29.628Z,2.40
2019-01-17T19:20:58.480Z,3.03
2019-01-17T19:23:27.381Z,2.40
2019-01-17T19:25:56.235Z,2.77
2019-01-17T19:28:25.051Z,2.90
2019-01-17T19:30:53.903Z,3.30
2019-01-17T19:33:22.792Z,2.67
2019-01-17T19:35:51.675Z,3.20
2019-01-17T19:38:20.561Z,3.27
2019-01-17T19:40:49.549Z,2.93
2019-01-17T19:43:18.483Z,2.93
2019-01-17T19:45:47.402Z,3.00
2019-01-17T19:48:16.210Z,3.27
2019-01-17T19:50:45.181Z,4.70
2019-01-17T19:53:14.008Z,3.83
2019-01-17T19:55:42.820Z,3.33
2019-01-17T19:58:11.623Z,3.37
2019-01-17T20:00:40.524Z,3.10
2019-01-17T20:03:09.377Z,3.43
2019-01-17T20:05:38.287Z,3.20
2019-01-17T20:08:07.113Z,3.33
2019-01-17T20:10:36.294Z,3.30
2019-01-17T20:13:05.532Z,3.57
2019-01-17T20:15:34.517Z,3.10
2019-01-17T20:18:03.458Z,3.50
2019-01-17T20:20:33.884Z,3.73
2019-01-17T20:23:02.948Z,3.10
2019-01-17T20:25:31.873Z,3.60
2019-01-17T20:28:00.735Z,3.77
2019-01-17T20:30:30.858Z,3.60
2019-01-17T20:33:00.303Z,3.63
2019-01-17T20:35:29.278Z,3.00
2019-01-17T20:37:58.095Z,3.30
2019-01-17T20:40:26.959Z,3.70
2019-01-17T20:42:55.823Z,3.70
2019-01-17T20:45:24.812Z,3.37
2019-01-17T20:47:53.915Z,3.33
2019-01-17T20:50:27.027Z,2.97
2019-01-17T20:52:56.062Z,3.30
2019-01-17T20:55:24.947Z,2.60
2019-01-17T20:57:53.968Z,2.80
2019-01-17T21:00:27.231Z,3.07
2019-01-17T21:02:56.095Z,3.23
2019-01-17T21:05:25.024Z,3.50
2019-01-17T21:07:53.858Z,3.07
2019-01-17T21:10:22.728Z,3.80
2019-01-17T21:12:51.554Z,3.33
2019-01-17T21:15:20.461Z,3.03
2019-01-17T21:17:49.378Z,3.80
2019-01-17T21:20:18.788Z,4.67
2019-01-17T21:22:47.723Z,4.03
2019-01-17T21:25:18.342Z,2.67
2019-01-17T21:27:47.275Z,2.43
2019-01-17T21:30:17.871Z,2.77
2019-01-17T21:32:46.763Z,2.77
2019-01-17T21:35:15.656Z,3.37
2019-01-17T21:37:44.548Z,2.57
2019-01-17T21:40:14.887Z,2.20
2019-01-17T21:42:43.818Z,2.60
2019-01-17T21:45:13.682Z,2.80
2019-01-17T21:47:42.572Z,2.80
2019-01-17T21:50:12.797Z,2.70
2019-01-17T21:52:41.952Z,2.73
2019-01-17T21:55:10.941Z,2.43
2019-01-17T21:57:39.776Z,2.50
2019-01-17T22:00:13.972Z,2.73
2019-01-17T22:02:42.779Z,2.60
2019-01-17T22:05:11.751Z,2.60
2019-01-17T22:07:40.580Z,2.30
2019-01-17T22:10:09.821Z,2.40
2019-01-17T22:12:38.679Z,2.17
2019-01-17T22:15:09.205Z,2.40
2019-01-17T22:17:38.012Z,2.50
2019-01-17T22:20:07.542Z,2.37
2019-01-17T22:22:36.382Z,3.13
2019-01-17T22:25:06.069Z,3.30
2019-01-17T22:27:34.893Z,2.60
2019-01-17T22:30:04.764Z,2.20
2019-01-17T22:32:33.973Z,1.98
2019-01-17T22:35:02.946Z,1.83
2019-01-17T22:37:31.762Z,2.10
2019-01-17T22:40:00.569Z,2.00
2019-01-17T22:42:29.460Z,1.80
2019-01-17T22:44:58.294Z,1.80
2019-01-17T22:47:27.218Z,1.90
2019-01-17T22:49:56.078Z,1.70
2019-01-17T22:52:24.938Z,1.83
2019-01-17T22:54:54.118Z,2.10
2019-01-17T22:57:22.935Z,2.10
2019-01-17T22:59:51.847Z,1.70
2019-01-17T23:02:20.751Z,1.80
2019-01-17T23:04:49.552Z,1.90
2019-01-17T23:07:18.289Z,1.70
2019-01-17T23:09:47.112Z,1.80
2019-01-17T23:12:15.986Z,1.43
2019-01-17T23:14:44.773Z,1.50
2019-01-17T23:17:13.533Z,1.70
2019-01-17T23:19:42.301Z,1.63
2019-01-17T23:22:11.211Z,1.50
2019-01-17T23:24:41.079Z,1.70
2019-01-17T23:27:09.884Z,1.83
2019-01-17T23:29:38.778Z,2.07
2019-01-17T23:32:07.561Z,2.60
2019-01-17T23:34:36.335Z,3.37
2019-01-17T23:37:05.070Z,1.90
2019-01-17T23:39:33.879Z,2.13
2019-01-17T23:42:04.713Z,2.00
2019-01-17T23:44:33.630Z,2.13
2019-01-17T23:47:02.486Z,2.60
2019-01-17T23:49:31.275Z,1.87
2019-01-17T23:52:00.129Z,1.80
2019-01-17T23:54:29.024Z,1.70
2019-01-17T23:56:57.786Z,1.80
2019-01-17T23:59:26.616Z,1.50
